Time;durP1;ratioP1;P1;durP2;ratioP2;P2;SDS_P1;SDS_P2;PMS_P1;PMS_P2;Temp;Humidity;BMP_temperature;BMP_pressure;BME280_temperature;BME280_humidity;BME280_pressure;Samples;Min_cycle;Max_cycle;Signal;HPM_P1;HPM_P2
2022/03/01 00:00:09;;;;;;;16.05;9.65;;;3.20;32.70;;;;;;5084174;28;20231;-78
2022/03/01 00:02:37;;;;;;;18.65;10.75;;;3.10;32.70;;;;;;5079048;28;20263;-77
2022/03/01 00:05:04;;;;;;;17.40;10.15;;;3.20;32.20;;;;;;5079329;28;20692;-76
2022/03/01 00:07:31;;;;;;;15.07;8.93;;;3.20;32.50;;;;;;5077633;28;20241;-78
2022/03/01 00:09:58;;;;;;;12.60;8.60;;;3.20;32.20;;;;;;5078789;28;20228;-76
2022/03/01 00:12:25;;;;;;;14.98;9.05;;;3.20;32.20;;;;;;5079982;28;20214;-76
2022/03/01 00:14:52;;;;;;;12.23;8.20;;;3.30;31.90;;;;;;5078147;28;20313;-76
2022/03/01 00:17:20;;;;;;;14.95;9.48;;;3.20;32.20;;;;;;5079465;28;20209;-77
2022/03/01 00:19:47;;;;;;;11.15;8.50;;;3.20;31.90;;;;;;5079135;28;20625;-78
2022/03/01 00:22:14;;;;;;;13.35;8.70;;;3.20;31.80;;;;;;5078674;28;20297;-77
2022/03/01 00:24:41;;;;;;;12.35;8.63;;;3.20;32.00;;;;;;5080070;28;20233;-78
2022/03/01 00:27:08;;;;;;;10.88;8.18;;;3.20;32.10;;;;;;5079001;28;20231;-76
2022/03/01 00:29:35;;;;;;;15.07;9.50;;;3.10;32.40;;;;;;5081916;28;20257;-77
2022/03/01 00:32:02;;;;;;;16.15;9.90;;;3.10;32.20;;;;;;5085586;28;20209;-79
2022/03/01 00:34:30;;;;;;;13.98;8.90;;;3.20;32.20;;;;;;5090475;28;20203;-77
2022/03/01 00:36:57;;;;;;;14.13;8.73;;;3.10;32.50;;;;;;5092493;28;20206;-78
2022/03/01 00:39:23;;;;;;;16.35;9.43;;;3.00;32.60;;;;;;5078848;28;20839;-74
2022/03/01 00:41:50;;;;;;;13.68;8.20;;;3.00;32.70;;;;;;5077013;28;20241;-76
2022/03/01 00:44:17;;;;;;;13.20;8.20;;;2.90;32.70;;;;;;5076260;28;20218;-75
2022/03/01 00:46:44;;;;;;;16.15;8.90;;;2.90;32.80;;;;;;5076881;28;20281;-77
2022/03/01 00:49:11;;;;;;;14.35;9.32;;;2.90;33.00;;;;;;5076634;28;20805;-75
2022/03/01 00:51:40;;;;;;;13.88;8.98;;;2.90;33.00;;;;;;5077334;28;20256;-74
2022/03/01 00:54:07;;;;;;;13.95;9.05;;;2.80;33.30;;;;;;5076855;28;20618;-76
2022/03/01 00:56:34;;;;;;;17.25;9.25;;;2.80;33.50;;;;;;5076613;28;20233;-76
2022/03/01 00:59:01;;;;;;;14.35;8.93;;;2.80;33.40;;;;;;5076927;28;20229;-77
2022/03/01 01:01:28;;;;;;;13.93;8.68;;;2.80;33.60;;;;;;5077114;28;20210;-76
2022/03/01 01:03:55;;;;;;;12.88;8.75;;;2.70;33.60;;;;;;5076129;28;20206;-75
2022/03/01 01:06:22;;;;;;;12.52;8.18;;;2.70;34.30;;;;;;5077355;28;20297;-76
2022/03/01 01:08:50;;;;;;;11.85;8.65;;;2.70;34.10;;;;;;5077811;28;20242;-77
2022/03/01 01:11:17;;;;;;;15.45;8.55;;;2.60;34.10;;;;;;5077556;28;20289;-75
2022/03/01 01:13:44;;;;;;;16.98;9.52;;;2.60;34.10;;;;;;5079857;28;20242;-77
2022/03/01 01:16:11;;;;;;;13.95;8.57;;;2.60;34.10;;;;;;5093059;28;20250;-77
2022/03/01 01:18:43;;;;;;;12.82;8.63;;;2.60;34.10;;;;;;5083920;28;20222;-76
2022/03/01 01:21:10;;;;;;;11.90;7.65;;;2.50;34.00;;;;;;5094914;28;20220;-76
2022/03/01 01:23:37;;;;;;;13.20;8.50;;;2.60;33.50;;;;;;5086945;28;20214;-75
2022/03/01 01:26:05;;;;;;;15.05;8.05;;;2.50;34.00;;;;;;5078338;28;20638;-74
2022/03/01 01:28:32;;;;;;;12.77;8.20;;;2.30;33.90;;;;;;5097095;28;20218;-76
2022/03/01 01:31:00;;;;;;;12.57;8.23;;;2.30;33.80;;;;;;5096110;28;20202;-75
2022/03/01 01:33:26;;;;;;;15.65;8.75;;;2.30;33.80;;;;;;5097328;28;20190;-76
2022/03/01 01:35:54;;;;;;;11.23;7.38;;;2.30;33.80;;;;;;5097240;28;20256;-77
2022/03/01 01:38:21;;;;;;;10.30;6.57;;;2.30;33.80;;;;;;5094596;28;20238;-76
2022/03/01 01:40:48;;;;;;;14.63;9.02;;;2.20;33.70;;;;;;5089480;28;20199;-77
2022/03/01 01:43:16;;;;;;;17.55;7.78;;;2.20;33.70;;;;;;5084701;28;20235;-76
2022/03/01 01:45:43;;;;;;;13.55;7.88;;;2.20;33.70;;;;;;5080757;28;20697;-76
2022/03/01 01:48:10;;;;;;;11.48;7.10;;;2.20;33.70;;;;;;5077127;28;20210;-75
2022/03/01 01:50:37;;;;;;;14.65;8.05;;;2.20;33.70;;;;;;5076974;28;20213;-78
2022/03/01 01:53:04;;;;;;;14.02;7.60;;;2.10;33.60;;;;;;5077837;28;20225;-77
2022/03/01 01:55:31;;;;;;;12.65;7.55;;;2.10;33.60;;;;;;5077986;28;20241;-76
2022/03/01 01:57:59;;;;;;;12.50;7.78;;;2.00;33.50;;;;;;5078868;28;20237;-77
2022/03/01 02:00:29;;;;;;;13.40;7.95;;;2.00;33.50;;;;;;5077002;28;20268;-77
2022/03/01 02:02:56;;;;;;;15.48;8.98;;;1.90;33.40;;;;;;5079720;28;20626;-77
2022/03/01 02:05:23;;;;;;;11.95;8.18;;;1.80;33.40;;;;;;5082573;28;20210;-78
2022/03/01 02:07:51;;;;;;;12.93;7.53;;;1.70;34.00;;;;;;5081112;28;20296;-76
2022/03/01 02:10:18;;;;;;;14.50;8.02;;;1.70;34.00;;;;;;5076519;28;20230;-76
2022/03/01 02:12:46;;;;;;;12.10;7.95;;;1.70;33.70;;;;;;5077703;28;20225;-77
2022/03/01 02:15:13;;;;;;;13.50;7.47;;;1.70;33.80;;;;;;5078806;28;20221;-77
2022/03/01 02:17:43;;;;;;;12.55;7.43;;;1.70;33.90;;;;;;5081913;28;20206;-79
2022/03/01 02:20:14;;;;;;;10.52;6.90;;;1.60;33.80;;;;;;5083276;28;20235;-78
2022/03/01 02:23:06;;;;;;;13.82;8.18;;;1.70;33.60;;;;;;5084690;28;20259;-77
2022/03/01 02:25:33;;;;;;;12.40;7.82;;;1.60;34.10;;;;;;5082291;28;20191;-77
2022/03/01 02:28:00;;;;;;;14.80;8.05;;;1.50;34.10;;;;;;5078286;28;20662;-75
2022/03/01 02:30:27;;;;;;;11.82;7.40;;;1.40;34.30;;;;;;5077334;28;20593;-78
2022/03/01 02:32:54;;;;;;;15.35;7.75;;;1.40;34.70;;;;;;5083042;28;20274;-78
2022/03/01 02:35:23;;;;;;;13.10;7.65;;;1.30;35.00;;;;;;5086921;28;20226;-76
2022/03/01 02:37:50;;;;;;;10.95;7.65;;;1.20;35.20;;;;;;5091108;28;20224;-77
2022/03/01 02:40:18;;;;;;;12.80;7.22;;;1.10;35.50;;;;;;5089455;28;20238;-77
2022/03/01 02:42:48;;;;;;;15.63;9.27;;;1.00;35.70;;;;;;5083568;28;20642;-76
2022/03/01 02:45:16;;;;;;;13.35;8.77;;;1.10;35.30;;;;;;5082806;28;20209;-75
2022/03/01 02:47:44;;;;;;;13.27;7.35;;;1.10;35.20;;;;;;5083830;28;20206;-76
2022/03/01 02:50:12;;;;;;;11.57;7.20;;;1.10;35.30;;;;;;5075747;28;20642;-75
2022/03/01 02:52:41;;;;;;;13.30;7.38;;;1.00;35.40;;;;;;5075848;28;20232;-75
2022/03/01 02:55:09;;;;;;;15.82;7.80;;;1.00;35.50;;;;;;5075552;28;20286;-76
2022/03/01 02:57:36;;;;;;;18.17;8.00;;;0.90;35.70;;;;;;5076563;28;20206;-76
2022/03/01 03:00:05;;;;;;;14.15;7.82;;;1.00;35.50;;;;;;5076880;28;20230;-74
2022/03/01 03:02:32;;;;;;;9.77;6.95;;;1.00;35.40;;;;;;5076493;28;20721;-75
2022/03/01 03:04:59;;;;;;;12.40;7.28;;;1.00;35.60;;;;;;5076247;28;20213;-76
2022/03/01 03:07:26;;;;;;;15.88;8.50;;;0.90;35.90;;;;;;5076052;28;20217;-75
2022/03/01 03:09:54;;;;;;;14.98;7.82;;;0.90;35.80;;;;;;5075851;28;20291;-77
2022/03/01 03:12:21;;;;;;;14.85;7.93;;;0.80;36.10;;;;;;5075781;28;20209;-78
2022/03/01 03:14:48;;;;;;;15.75;7.70;;;0.80;36.30;;;;;;5077026;28;20206;-75
2022/03/01 03:17:15;;;;;;;13.20;7.70;;;0.80;36.30;;;;;;5076546;28;20258;-76
2022/03/01 03:19:42;;;;;;;15.23;8.13;;;0.80;36.50;;;;;;5078631;28;20578;-75
2022/03/01 03:22:09;;;;;;;14.40;7.63;;;0.70;36.70;;;;;;5082877;28;20213;-75
2022/03/01 03:24:36;;;;;;;13.90;8.88;;;0.70;36.70;;;;;;5088105;28;20236;-78
2022/03/01 03:27:05;;;;;;;14.35;8.20;;;0.70;37.40;;;;;;5087820;28;20206;-76
2022/03/01 03:29:32;;;;;;;15.82;7.65;;;0.60;36.60;;;;;;5082709;28;20237;-77
2022/03/01 03:31:59;;;;;;;17.15;7.90;;;0.60;37.20;;;;;;5080151;28;20237;-77
2022/03/01 03:34:27;;;;;;;13.35;7.63;;;0.60;37.00;;;;;;5085412;28;20278;-78
2022/03/01 03:36:54;;;;;;;16.63;8.80;;;0.60;37.10;;;;;;5095520;28;20237;-79
2022/03/01 03:39:22;;;;;;;15.50;8.88;;;0.60;37.20;;;;;;5098516;28;20281;-80
2022/03/01 03:41:49;;;;;;;16.65;8.40;;;0.60;37.20;;;;;;5097528;28;20194;-78
2022/03/01 03:44:17;;;;;;;14.48;7.95;;;0.60;36.50;;;;;;5091578;28;20194;-79
2022/03/01 03:46:44;;;;;;;13.70;7.20;;;0.70;36.70;;;;;;5099860;28;20282;-76
2022/03/01 03:49:11;;;;;;;13.20;8.45;;;0.60;36.80;;;;;;5099972;28;20221;-79
2022/03/01 03:51:38;;;;;;;15.77;9.30;;;0.60;37.00;;;;;;5098741;28;20208;-77
2022/03/01 03:54:05;;;;;;;14.25;8.57;;;0.60;37.20;;;;;;5092291;28;20212;-79
2022/03/01 03:56:32;;;;;;;16.02;7.82;;;0.50;37.10;;;;;;5092073;28;20253;-79
2022/03/01 03:58:59;;;;;;;14.95;7.78;;;0.40;37.10;;;;;;5085845;28;20234;-79
2022/03/01 04:01:27;;;;;;;16.80;8.85;;;0.40;37.80;;;;;;5082625;28;20237;-78
2022/03/01 04:03:54;;;;;;;16.23;8.52;;;0.40;37.90;;;;;;5084910;28;20213;-78
2022/03/01 04:06:22;;;;;;;19.73;8.45;;;0.30;38.30;;;;;;5082931;28;20676;-79
2022/03/01 04:08:48;;;;;;;15.73;7.88;;;0.30;38.50;;;;;;5087277;28;20226;-79
2022/03/01 04:11:15;;;;;;;15.98;8.20;;;0.30;38.40;;;;;;5095998;28;20240;-78
2022/03/01 04:13:42;;;;;;;15.75;8.55;;;0.30;38.60;;;;;;5095715;28;20230;-78
2022/03/01 04:16:09;;;;;;;15.20;8.70;;;0.20;38.60;;;;;;5084107;28;20256;-77
2022/03/01 04:18:38;;;;;;;14.23;8.77;;;0.20;38.90;;;;;;5088218;28;20289;-77
2022/03/01 04:21:05;;;;;;;16.27;8.20;;;0.10;39.10;;;;;;5081055;28;20213;-77
2022/03/01 04:23:32;;;;;;;17.13;8.43;;;0.10;39.10;;;;;;5079661;28;20198;-77
2022/03/01 04:25:59;;;;;;;15.15;8.73;;;0.10;39.20;;;;;;5079806;28;20665;-78
2022/03/01 04:28:26;;;;;;;18.77;8.45;;;0.20;39.20;;;;;;5080622;28;20221;-81
2022/03/01 04:30:53;;;;;;;12.75;7.97;;;0.20;39.10;;;;;;5082930;28;20220;-76
2022/03/01 04:33:21;;;;;;;14.35;8.45;;;0.20;38.90;;;;;;5082844;28;20619;-79
2022/03/01 04:35:50;;;;;;;16.17;8.02;;;0.20;38.90;;;;;;5081421;28;20275;-76
2022/03/01 04:38:16;;;;;;;21.65;9.00;;;0.20;39.00;;;;;;5082122;28;20210;-79
2022/03/01 04:40:44;;;;;;;15.95;9.75;;;0.20;39.20;;;;;;5081330;28;20237;-76
2022/03/01 04:43:11;;;;;;;14.98;8.18;;;0.20;39.20;;;;;;5079890;28;20229;-75
2022/03/01 04:45:37;;;;;;;16.52;9.20;;;0.10;39.20;;;;;;5078137;28;20206;-77
2022/03/01 04:48:05;;;;;;;13.95;8.18;;;0.10;39.50;;;;;;5078138;28;20230;-75
2022/03/01 04:50:32;;;;;;;19.25;8.65;;;0.10;39.60;;;;;;5077775;28;20654;-78
2022/03/01 04:53:00;;;;;;;16.15;8.70;;;0.10;39.80;;;;;;5080245;28;20695;-75
2022/03/01 04:55:27;;;;;;;15.75;8.55;;;0.00;39.90;;;;;;5085203;28;20225;-75
2022/03/01 04:57:55;;;;;;;20.08;9.32;;;0.00;39.90;;;;;;5089332;28;20241;-80
2022/03/01 05:00:22;;;;;;;15.88;7.97;;;0.00;40.30;;;;;;5088473;28;20225;-76
2022/03/01 05:02:49;;;;;;;22.88;9.02;;;-0.10;40.70;;;;;;5076769;28;20209;-76
2022/03/01 05:05:17;;;;;;;15.10;8.50;;;-0.10;40.30;;;;;;5077645;28;20642;-76
2022/03/01 05:07:46;;;;;;;17.08;8.90;;;-0.10;40.70;;;;;;5082271;28;20699;-80
2022/03/01 05:10:17;;;;;;;20.95;9.35;;;-0.10;41.30;;;;;;5083411;28;20261;-79
2022/03/01 05:12:45;;;;;;;16.27;8.60;;;-0.10;41.00;;;;;;5077784;28;20402;-76
2022/03/01 05:15:13;;;;;;;15.55;8.45;;;-0.10;41.40;;;;;;5081859;28;20320;-77
2022/03/01 05:17:40;;;;;;;16.40;8.50;;;-0.10;41.40;;;;;;5087320;28;20222;-79
2022/03/01 05:20:09;;;;;;;16.55;8.88;;;-0.20;41.30;;;;;;5078775;28;20222;-75
2022/03/01 05:22:37;;;;;;;14.82;8.88;;;-0.30;41.30;;;;;;5077334;28;20209;-79
2022/03/01 05:25:04;;;;;;;18.55;9.55;;;-0.30;41.30;;;;;;5077030;28;20271;-75
2022/03/01 05:27:33;;;;;;;14.98;8.63;;;-0.30;41.20;;;;;;5079665;28;20642;-80
2022/03/01 05:30:00;;;;;;;15.18;9.02;;;-0.40;41.20;;;;;;5085351;28;20234;-77
2022/03/01 05:32:27;;;;;;;20.20;9.80;;;-0.30;41.20;;;;;;5084687;28;20616;-79
2022/03/01 05:34:54;;;;;;;13.18;8.10;;;-0.40;41.10;;;;;;5083981;28;20206;-80
2022/03/01 05:37:21;;;;;;;17.10;8.13;;;-0.40;41.10;;;;;;5091404;28;20233;-76
2022/03/01 05:39:48;;;;;;;17.17;7.93;;;-0.40;41.10;;;;;;5091121;28;20237;-78
2022/03/01 05:42:15;;;;;;;13.80;8.10;;;-0.30;41.20;;;;;;5082633;28;20251;-79
2022/03/01 05:44:43;;;;;;;17.85;8.20;;;-0.40;41.10;;;;;;5081477;28;20210;-78
2022/03/01 05:47:11;;;;;;;13.75;8.38;;;-0.40;41.20;;;;;;5081244;28;20214;-79
2022/03/01 05:49:58;;;;;;;17.15;9.57;;;-0.40;41.10;;;;;;5083200;28;20226;-78
2022/03/01 05:52:25;;;;;;;15.00;8.88;;;-0.30;41.20;;;;;;5079647;28;20213;-73
2022/03/01 05:54:52;;;;;;;17.23;9.00;;;-0.40;41.20;;;;;;5082639;28;20281;-80
2022/03/01 05:57:19;;;;;;;15.68;8.13;;;-0.40;41.20;;;;;;5093642;28;20249;-79
2022/03/01 05:59:48;;;;;;;13.57;8.95;;;-0.40;41.10;;;;;;5087978;28;20226;-80
2022/03/01 06:02:15;;;;;;;16.25;9.18;;;-0.40;41.10;;;;;;5093608;28;20206;-81
2022/03/01 06:04:41;;;;;;;12.63;8.23;;;-0.40;41.10;;;;;;5083669;28;20201;-75
2022/03/01 06:07:08;;;;;;;17.80;9.55;;;-0.30;41.20;;;;;;5079834;28;20289;-76
2022/03/01 06:09:35;;;;;;;16.40;9.00;;;-0.30;41.20;;;;;;5093770;28;20331;-82
2022/03/01 06:12:03;;;;;;;18.35;8.15;;;-0.30;41.20;;;;;;5094232;28;20205;-76
2022/03/01 06:14:30;;;;;;;16.15;9.20;;;-0.20;41.30;;;;;;5094241;28;20196;-76
2022/03/01 06:16:59;;;;;;;16.48;9.32;;;-0.20;41.40;;;;;;5090733;28;20221;-79
2022/03/01 06:19:26;;;;;;;18.30;9.95;;;-0.20;41.30;;;;;;5070530;28;20265;-77
2022/03/01 06:21:53;;;;;;;15.65;9.48;;;-0.20;41.30;;;;;;5058675;28;20295;-76
2022/03/01 06:24:20;;;;;;;15.25;9.60;;;-0.20;41.30;;;;;;5059164;28;20230;-75
2022/03/01 06:26:47;;;;;;;14.77;9.05;;;-0.20;41.30;;;;;;5065753;28;20202;-74
2022/03/01 06:29:15;;;;;;;16.70;9.30;;;-0.10;41.40;;;;;;5080200;28;20256;-77
2022/03/01 06:31:42;;;;;;;13.48;8.75;;;-0.10;41.40;;;;;;5080653;28;20289;-74
2022/03/01 06:34:10;;;;;;;14.93;8.45;;;0.00;41.50;;;;;;5081105;28;20235;-77
2022/03/01 06:36:47;;;;;;;19.10;8.55;;;0.00;41.00;;;;;;5080167;28;20214;-75
2022/03/01 06:39:17;;;;;;;14.80;8.70;;;0.10;40.80;;;;;;5078285;28;20237;-76
2022/03/01 06:41:44;;;;;;;17.13;9.20;;;0.10;40.60;;;;;;5081384;28;20323;-77
2022/03/01 06:44:11;;;;;;;15.68;8.95;;;0.10;40.80;;;;;;5080673;28;20249;-81
2022/03/01 06:46:38;;;;;;;18.17;9.18;;;0.10;41.00;;;;;;5079756;28;20198;-76
2022/03/01 06:49:05;;;;;;;16.77;8.68;;;0.10;40.70;;;;;;5079519;28;20288;-77
2022/03/01 06:51:34;;;;;;;17.48;9.85;;;0.10;40.60;;;;;;5082647;28;20202;-75
2022/03/01 06:54:01;;;;;;;14.90;10.10;;;0.20;40.50;;;;;;5066318;28;20221;-76
2022/03/01 06:56:28;;;;;;;16.83;9.40;;;0.20;40.20;;;;;;5068280;28;20206;-77
2022/03/01 06:58:55;;;;;;;17.73;9.60;;;0.20;40.30;;;;;;5070832;28;20241;-77
2022/03/01 07:01:23;;;;;;;18.92;10.32;;;0.20;40.20;;;;;;5079040;28;20217;-76
2022/03/01 07:03:53;;;;;;;22.52;9.45;;;0.20;40.10;;;;;;5082853;28;20217;-78
2022/03/01 07:06:20;;;;;;;18.75;10.60;;;0.30;40.20;;;;;;5086749;28;20345;-77
2022/03/01 07:08:49;;;;;;;15.32;9.82;;;0.20;40.10;;;;;;5091958;28;20236;-79
2022/03/01 07:11:16;;;;;;;15.52;9.43;;;0.30;40.20;;;;;;5090020;28;20259;-78
2022/03/01 07:13:43;;;;;;;21.60;10.07;;;0.30;40.20;;;;;;5086121;28;20540;-77
2022/03/01 07:16:10;;;;;;;21.60;11.18;;;0.40;40.30;;;;;;5082288;28;20221;-76
2022/03/01 07:18:37;;;;;;;18.83;10.68;;;0.50;39.60;;;;;;5081997;28;20316;-76
2022/03/01 07:21:03;;;;;;;18.58;9.65;;;0.50;39.60;;;;;;5087776;28;20206;-77
2022/03/01 07:23:30;;;;;;;18.00;10.07;;;0.50;39.70;;;;;;5089768;28;20245;-79
2022/03/01 07:26:00;;;;;;;19.50;9.88;;;0.60;39.40;;;;;;5089670;28;20693;-79
2022/03/01 07:28:28;;;;;;;18.98;9.85;;;0.60;39.50;;;;;;5085244;28;20322;-74
2022/03/01 07:30:55;;;;;;;16.73;10.05;;;0.60;39.50;;;;;;5081966;28;20213;-76
2022/03/01 07:33:22;;;;;;;17.48;10.27;;;0.70;39.30;;;;;;5083422;28;20218;-76
2022/03/01 07:35:49;;;;;;;19.02;10.35;;;0.80;39.30;;;;;;5081499;28;20809;-75
2022/03/01 07:38:16;;;;;;;17.23;9.90;;;0.80;38.40;;;;;;5080339;28;20591;-78
2022/03/01 07:40:43;;;;;;;20.45;9.60;;;0.90;38.70;;;;;;5078668;28;20626;-73
2022/03/01 07:43:11;;;;;;;18.08;10.15;;;1.00;38.30;;;;;;5077915;28;20229;-77
2022/03/01 07:45:38;;;;;;;17.08;9.00;;;1.10;37.90;;;;;;5078283;28;20268;-75
2022/03/01 07:48:10;;;;;;;14.20;8.88;;;1.20;37.70;;;;;;5086308;28;20565;-77
2022/03/01 07:50:37;;;;;;;19.73;10.02;;;1.30;37.50;;;;;;5088822;28;20210;-75
2022/03/01 07:53:04;;;;;;;15.65;9.50;;;1.40;36.50;;;;;;5089066;28;20484;-77
2022/03/01 07:55:31;;;;;;;16.60;9.82;;;1.50;36.40;;;;;;5091987;28;20341;-76
2022/03/01 07:57:58;;;;;;;16.60;9.57;;;1.60;36.00;;;;;;5094106;28;20245;-76
2022/03/01 08:00:27;;;;;;;10.35;7.70;;;1.70;36.20;;;;;;5096517;28;20229;-76
2022/03/01 08:02:54;;;;;;;17.25;9.63;;;1.80;35.30;;;;;;5098020;28;20198;-76
2022/03/01 08:05:22;;;;;;;14.77;10.05;;;1.90;35.40;;;;;;5093663;28;20240;-79
2022/03/01 08:07:49;;;;;;;18.15;9.65;;;2.00;34.50;;;;;;5085660;28;20221;-78
2022/03/01 08:10:16;;;;;;;11.35;9.00;;;2.10;34.30;;;;;;5086459;28;20264;-78
2022/03/01 08:12:43;;;;;;;15.68;8.43;;;2.10;33.70;;;;;;5085990;28;20269;-78
2022/03/01 08:15:11;;;;;;;15.68;9.45;;;2.20;33.70;;;;;;5085905;28;20214;-77
2022/03/01 08:17:48;;;;;;;15.35;9.30;;;2.30;33.80;;;;;;5091411;28;20218;-78
2022/03/01 08:20:15;;;;;;;12.93;9.35;;;2.50;34.00;;;;;;5088486;28;20221;-76
2022/03/01 08:22:42;;;;;;;13.00;9.05;;;2.40;33.90;;;;;;5089610;28;20206;-77
2022/03/01 08:25:09;;;;;;;15.50;9.25;;;2.50;33.60;;;;;;5085849;28;20202;-77
2022/03/01 08:27:37;;;;;;;21.83;12.43;;;2.60;33.00;;;;;;5080806;28;20256;-76
2022/03/01 08:30:05;;;;;;;17.75;10.38;;;2.60;32.70;;;;;;5080423;28;20235;-75
2022/03/01 08:32:32;;;;;;;16.63;9.35;;;2.80;32.80;;;;;;5079428;28;20209;-77
2022/03/01 08:35:00;;;;;;;12.65;9.48;;;2.80;32.10;;;;;;5079718;28;20293;-76
2022/03/01 08:37:27;;;;;;;12.60;7.88;;;2.80;32.20;;;;;;5082613;28;20237;-77
2022/03/01 08:39:55;;;;;;;13.50;9.20;;;2.80;31.40;;;;;;5086621;28;20238;-76
2022/03/01 08:42:22;;;;;;;16.88;9.55;;;2.90;31.30;;;;;;5087925;28;20229;-80
2022/03/01 08:44:49;;;;;;;17.02;9.70;;;2.90;30.80;;;;;;5087860;28;20585;-80
2022/03/01 08:47:16;;;;;;;17.00;8.77;;;3.00;30.60;;;;;;5087699;28;20534;-81
2022/03/01 08:49:43;;;;;;;15.20;9.23;;;3.10;30.90;;;;;;5085825;28;20233;-79
2022/03/01 08:52:12;;;;;;;18.73;9.60;;;3.30;30.90;;;;;;5086986;28;20214;-78
2022/03/01 08:54:38;;;;;;;19.25;9.88;;;3.20;30.20;;;;;;5089578;28;20218;-76
2022/03/01 08:57:05;;;;;;;14.43;8.45;;;3.30;30.40;;;;;;5097067;28;20202;-75
2022/03/01 08:59:32;;;;;;;15.05;9.57;;;3.50;30.00;;;;;;5096621;28;20214;-78
2022/03/01 09:01:59;;;;;;;17.88;10.68;;;3.50;29.70;;;;;;5097760;28;20215;-76
2022/03/01 09:04:26;;;;;;;21.20;8.25;;;3.60;29.60;;;;;;5090463;28;20213;-78
2022/03/01 09:06:53;;;;;;;17.65;9.75;;;3.40;29.20;;;;;;5087118;28;20217;-78
2022/03/01 09:09:22;;;;;;;13.60;8.93;;;3.40;29.60;;;;;;5089743;28;20234;-76
2022/03/01 09:11:49;;;;;;;14.45;9.13;;;3.50;29.30;;;;;;5097098;28;20231;-74
2022/03/01 09:14:16;;;;;;;18.60;8.98;;;3.60;29.30;;;;;;5092000;28;20217;-76
2022/03/01 09:16:42;;;;;;;13.75;8.73;;;3.70;28.40;;;;;;5088042;28;20297;-76
2022/03/01 09:19:10;;;;;;;14.68;8.05;;;3.80;27.80;;;;;;5088647;28;20226;-75
2022/03/01 09:21:38;;;;;;;14.45;7.85;;;3.80;27.80;;;;;;5089645;28;20285;-77
2022/03/01 09:24:06;;;;;;;15.45;9.32;;;3.90;28.00;;;;;;5085480;28;20209;-79
2022/03/01 09:26:34;;;;;;;15.23;8.63;;;4.10;27.70;;;;;;5083355;28;20262;-77
2022/03/01 09:29:01;;;;;;;17.30;8.68;;;4.20;27.30;;;;;;5080971;28;20219;-77
2022/03/01 09:31:28;;;;;;;12.20;8.77;;;4.30;26.60;;;;;;5081667;28;20276;-77
2022/03/01 09:33:55;;;;;;;15.32;9.20;;;4.20;27.20;;;;;;5080490;28;20648;-76
2022/03/01 09:36:25;;;;;;;17.00;9.27;;;4.30;26.90;;;;;;5076362;28;20264;-75
2022/03/01 09:38:52;;;;;;;14.48;8.85;;;4.40;26.70;;;;;;5075581;28;20332;-75
2022/03/01 09:41:19;;;;;;;14.80;9.18;;;4.60;26.80;;;;;;5078162;28;20208;-78
2022/03/01 09:43:52;;;;;;;15.48;9.02;;;4.80;26.90;;;;;;5076354;28;20207;-75
2022/03/01 09:46:19;;;;;;;11.70;8.20;;;4.90;26.60;;;;;;5075674;28;20196;-77
2022/03/01 09:48:46;;;;;;;12.98;8.48;;;4.70;26.90;;;;;;5075459;28;20310;-76
2022/03/01 09:51:14;;;;;;;13.00;9.25;;;4.80;26.30;;;;;;5075821;28;20215;-77
2022/03/01 09:53:42;;;;;;;12.05;8.40;;;5.00;26.50;;;;;;5075042;28;20207;-76
2022/03/01 09:56:10;;;;;;;15.68;8.82;;;5.00;25.70;;;;;;5074432;28;20300;-76
2022/03/01 09:58:38;;;;;;;13.25;8.65;;;4.90;26.00;;;;;;5076235;28;20297;-77
2022/03/01 10:01:10;;;;;;;15.15;8.85;;;5.00;25.90;;;;;;5080396;28;20216;-77
2022/03/01 10:03:38;;;;;;;12.98;8.20;;;5.00;25.70;;;;;;5075297;28;20215;-75
2022/03/01 10:06:10;;;;;;;12.10;8.10;;;5.00;25.80;;;;;;5075306;28;20512;-78
2022/03/01 10:08:37;;;;;;;13.65;8.40;;;5.20;25.20;;;;;;5073899;28;20227;-76
2022/03/01 10:11:05;;;;;;;17.95;9.63;;;5.30;25.00;;;;;;5073980;28;20207;-75
2022/03/01 10:13:33;;;;;;;13.77;9.05;;;5.60;24.80;;;;;;5074261;28;20213;-75
2022/03/01 10:16:05;;;;;;;13.65;8.55;;;5.60;24.10;;;;;;5074331;28;20203;-74
2022/03/01 10:18:35;;;;;;;12.95;8.90;;;5.80;23.90;;;;;;5074421;28;20321;-74
2022/03/01 10:21:04;;;;;;;17.55;8.40;;;6.00;23.80;;;;;;5073741;28;20204;-75
2022/03/01 10:23:31;;;;;;;12.80;8.23;;;6.20;23.50;;;;;;5073533;28;20217;-74
2022/03/01 10:25:59;;;;;;;15.05;8.68;;;6.20;23.40;;;;;;5075148;28;20690;-74
2022/03/01 10:28:34;;;;;;;14.35;8.98;;;6.00;23.00;;;;;;5073999;28;20208;-74
2022/03/01 10:31:10;;;;;;;12.43;7.80;;;6.00;23.10;;;;;;5074264;28;20214;-76
2022/03/01 10:33:40;;;;;;;12.80;8.00;;;6.10;22.80;;;;;;5076066;28;20199;-76
2022/03/01 10:36:07;;;;;;;18.48;8.85;;;6.00;23.20;;;;;;5081598;28;20212;-76
2022/03/01 10:38:38;;;;;;;11.93;8.23;;;6.00;23.40;;;;;;5085497;28;20612;-74
2022/03/01 10:41:05;;;;;;;12.45;8.57;;;6.30;23.20;;;;;;5086280;28;20212;-74
2022/03/01 10:43:32;;;;;;;11.30;7.60;;;6.20;22.40;;;;;;5087667;28;20218;-77
2022/03/01 10:46:02;;;;;;;14.52;9.10;;;6.30;22.40;;;;;;5075971;28;20268;-76
2022/03/01 10:48:31;;;;;;;12.50;8.35;;;6.40;22.10;;;;;;5077667;28;20315;-75
2022/03/01 10:51:02;;;;;;;13.98;8.77;;;6.80;21.60;;;;;;5081003;28;20550;-75
2022/03/01 10:53:33;;;;;;;11.50;8.35;;;6.80;21.90;;;;;;5086144;28;20353;-73
2022/03/01 10:56:01;;;;;;;11.55;9.00;;;7.00;21.90;;;;;;5087215;28;20291;-73
2022/03/01 10:58:29;;;;;;;16.77;8.93;;;7.10;21.10;;;;;;5084280;28;20232;-73
2022/03/01 11:00:56;;;;;;;13.27;9.05;;;6.80;21.10;;;;;;5085417;28;20272;-77
2022/03/01 11:03:24;;;;;;;15.52;7.82;;;6.70;20.80;;;;;;5086638;28;20203;-73
2022/03/01 11:05:53;;;;;;;14.27;8.43;;;6.70;21.40;;;;;;5084428;28;20266;-74
2022/03/01 11:08:23;;;;;;;12.88;8.40;;;6.50;21.40;;;;;;5080647;28;20254;-75
2022/03/01 11:10:53;;;;;;;16.33;8.35;;;6.40;21.20;;;;;;5079993;28;20639;-75
2022/03/01 11:13:23;;;;;;;12.40;8.20;;;6.40;21.50;;;;;;5079234;28;20235;-75
2022/03/01 11:16:23;;;;;;;14.02;7.85;;;6.50;21.40;;;;;;5079119;28;20189;-75
2022/03/01 11:18:55;;;;;;;12.88;8.13;;;6.50;20.60;;;;;;5082393;28;20263;-75
2022/03/01 11:21:24;;;;;;;14.68;8.80;;;6.40;20.40;;;;;;5089332;28;20197;-73
2022/03/01 11:23:56;;;;;;;15.55;8.40;;;6.50;20.10;;;;;;5088642;28;20298;-74
2022/03/01 11:26:23;;;;;;;13.88;8.73;;;6.70;20.30;;;;;;5091544;28;20314;-75
2022/03/01 11:28:54;;;;;;;14.15;8.75;;;6.80;20.30;;;;;;5089311;28;20236;-74
2022/03/01 11:31:24;;;;;;;9.88;7.43;;;7.00;20.50;;;;;;5078618;28;20299;-76
2022/03/01 11:33:56;;;;;;;13.63;8.02;;;7.00;18.60;;;;;;5077415;28;20586;-74
2022/03/01 11:36:25;;;;;;;13.70;7.57;;;7.20;19.10;;;;;;5076380;28;20216;-74
2022/03/01 11:38:53;;;;;;;11.25;8.15;;;7.10;19.70;;;;;;5078438;28;20236;-73
2022/03/01 11:41:22;;;;;;;13.32;8.80;;;7.00;20.40;;;;;;5079495;28;20231;-72
2022/03/01 11:43:55;;;;;;;13.73;8.02;;;7.40;19.00;;;;;;5076712;28;20306;-74
2022/03/01 11:46:22;;;;;;;14.02;7.43;;;7.40;18.50;;;;;;5076229;28;20611;-76
2022/03/01 11:48:53;;;;;;;14.25;7.10;;;7.20;17.70;;;;;;5078237;28;20248;-75
2022/03/01 11:51:31;;;;;;;10.60;6.70;;;7.30;16.80;;;;;;5077296;28;20213;-75
2022/03/01 11:54:03;;;;;;;10.70;7.20;;;7.40;16.80;;;;;;5081177;28;20239;-74
2022/03/01 11:56:30;;;;;;;14.15;7.63;;;7.40;16.60;;;;;;5079738;28;20223;-76
2022/03/01 11:59:05;;;;;;;11.88;7.45;;;7.40;15.90;;;;;;5074720;28;20248;-76
2022/03/01 12:01:33;;;;;;;11.40;7.50;;;7.30;15.40;;;;;;5075451;28;20202;-74
2022/03/01 12:04:02;;;;;;;9.68;7.10;;;7.30;15.40;;;;;;5076210;28;20285;-75
2022/03/01 12:06:32;;;;;;;11.88;7.93;;;7.20;15.30;;;;;;5077857;28;20207;-74
2022/03/01 12:09:04;;;;;;;10.88;7.15;;;7.20;15.80;;;;;;5076185;28;20681;-74
2022/03/01 12:11:35;;;;;;;10.05;7.30;;;7.60;15.80;;;;;;5076061;28;20220;-74
2022/03/01 12:14:05;;;;;;;14.30;7.50;;;7.90;15.60;;;;;;5078686;28;20209;-74
2022/03/01 12:16:33;;;;;;;11.02;7.25;;;8.00;15.20;;;;;;5079022;28;20215;-73
2022/03/01 12:19:11;;;;;;;11.00;6.72;;;7.80;14.50;;;;;;5076572;28;20233;-74
2022/03/01 12:21:40;;;;;;;8.50;6.13;;;7.90;12.80;;;;;;5075637;28;20213;-71
2022/03/01 12:24:09;;;;;;;11.27;7.13;;;7.80;12.80;;;;;;5076442;28;20233;-75
2022/03/01 12:26:44;;;;;;;11.63;6.70;;;7.90;13.70;;;;;;5076231;28;20246;-73
2022/03/01 12:29:12;;;;;;;9.50;6.32;;;8.10;13.60;;;;;;5078645;28;20308;-75
2022/03/01 12:31:40;;;;;;;9.82;6.18;;;8.40;13.80;;;;;;5078211;28;20293;-75
2022/03/01 12:34:09;;;;;;;11.73;6.97;;;8.30;13.10;;;;;;5075930;28;20269;-74
2022/03/01 12:36:38;;;;;;;13.52;8.13;;;7.80;13.90;;;;;;5076680;28;20229;-75
2022/03/01 12:39:08;;;;;;;8.38;6.25;;;7.50;15.30;;;;;;5075312;28;20344;-74
2022/03/01 12:41:35;;;;;;;11.43;8.23;;;7.60;16.20;;;;;;5076165;28;20209;-74
2022/03/01 12:44:05;;;;;;;9.38;6.35;;;7.90;16.40;;;;;;5076338;28;20206;-74
2022/03/01 12:46:32;;;;;;;9.13;6.20;;;8.00;16.00;;;;;;5075870;28;20216;-75
2022/03/01 12:49:01;;;;;;;13.43;7.93;;;8.00;14.90;;;;;;5075790;28;20288;-75